Time;durP1;ratioP1;P1;durP2;ratioP2;P2;SDS_P1;SDS_P2;PMS_P1;PMS_P2;Temp;Humidity;BMP_temperature;BMP_pressure;BME280_temperature;BME280_humidity;BME280_pressure;Samples;Min_cycle;Max_cycle;Signal;HPM_P1;HPM_P2
2021/08/26 00:00:54;;;;;;;1231.70;999.90;;;;;;;16.45;81.11;93276.66;5050062;28;20025;-46
2021/08/26 00:06:04;;;;;;;1197.00;999.90;;;;;;;16.68;82.12;93295.66;5050046;28;20055;-46
2021/08/26 00:08:31;;;;;;;1192.10;999.90;;;;;;;16.70;82.31;93292.31;5049964;28;20482;-45
2021/08/26 00:10:57;;;;;;;1188.93;999.90;;;;;;;16.68;82.67;93295.66;5049963;28;20055;-46
2021/08/26 00:13:22;;;;;;;1207.32;999.90;;;;;;;16.77;83.63;93300.47;5049841;28;20478;-46
2021/08/26 00:15:48;;;;;;;1228.75;999.90;;;;;;;16.84;83.37;93301.63;5049964;28;20048;-46
2021/08/26 00:18:15;;;;;;;1134.95;999.90;;;;;;;16.77;81.84;93291.38;5049939;28;20624;-46
2021/08/26 00:20:42;;;;;;;1277.72;999.90;;;;;;;16.84;82.67;93290.47;5034954;28;20032;-45
2021/08/26 00:23:07;;;;;;;1282.28;999.90;;;;;;;16.89;83.05;93300.59;5053308;28;20025;-46
2021/08/26 00:25:33;;;;;;;1134.55;999.90;;;;;;;16.85;81.52;93297.53;5053633;28;20028;-47
2021/08/26 00:27:58;;;;;;;1158.75;999.90;;;;;;;16.79;81.85;93297.09;5053232;28;20032;-45
2021/08/26 00:30:25;;;;;;;1219.10;999.90;;;;;;;16.79;81.53;93294.31;5053536;28;20025;-44
2021/08/26 00:32:50;;;;;;;1164.90;999.90;;;;;;;16.79;82.13;93283.88;5053102;28;20025;-45
2021/08/26 00:35:16;;;;;;;1373.13;999.90;;;;;;;16.78;82.76;93278.91;5053155;28;20087;-45
2021/08/26 00:37:42;;;;;;;1174.38;999.90;;;;;;;16.81;83.02;93289.59;5053076;28;20031;-44
2021/08/26 00:40:07;;;;;;;1116.30;996.25;;;;;;;16.86;82.94;93290.63;5052885;28;20033;-45
2021/08/26 00:42:34;;;;;;;1108.07;988.90;;;;;;;16.80;82.32;93287.41;5052987;28;20021;-44
2021/08/26 00:45:00;;;;;;;1161.63;999.90;;;;;;;16.74;81.86;93284.22;5052756;28;20115;-45
2021/08/26 00:47:25;;;;;;;1301.22;999.90;;;;;;;16.74;82.58;93282.16;5053219;28;20495;-45
2021/08/26 00:49:54;;;;;;;1111.60;990.45;;;;;;;16.65;82.41;93272.50;5035323;28;20118;-45
2021/08/26 00:52:21;;;;;;;1086.10;967.60;;;;;;;16.68;82.60;93284.53;5053008;28;20025;-46
2021/08/26 00:54:47;;;;;;;1264.85;999.90;;;;;;;16.66;82.91;93273.22;5034977;28;20473;-45
2021/08/26 00:57:12;;;;;;;1165.60;997.85;;;;;;;16.62;83.25;93268.13;5052703;28;20114;-45
2021/08/26 00:59:38;;;;;;;1218.45;999.90;;;;;;;16.64;83.12;93279.41;5052651;28;20055;-46
2021/08/26 01:02:42;;;;;;;1118.30;995.20;;;;;;;16.65;83.02;93275.28;5052553;28;20036;-46
2021/08/26 01:05:24;;;;;;;1153.57;999.90;;;;;;;16.64;83.70;93265.47;5029060;28;20430;-46
2021/08/26 01:07:56;;;;;;;1167.78;997.20;;;;;;;16.64;83.57;93264.72;5052789;28;20028;-45
2021/08/26 01:10:23;;;;;;;1263.25;998.75;;;;;;;16.64;82.92;93267.53;5034745;28;20086;-46
2021/08/26 01:12:55;;;;;;;1396.57;999.90;;;;;;;16.72;83.01;93275.72;5052312;28;20520;-46
2021/08/26 01:15:22;;;;;;;1047.07;940.55;;;;;;;16.57;82.30;93277.53;5034850;28;20028;-45
2021/08/26 01:17:48;;;;;;;1076.97;966.80;;;;;;;16.55;81.93;93273.84;5052541;28;20029;-46
2021/08/26 01:20:14;;;;;;;1132.60;999.90;;;;;;;16.55;81.96;93268.28;5052533;28;20464;-46
2021/08/26 01:22:39;;;;;;;1096.20;981.25;;;;;;;16.65;82.21;93272.50;5052385;28;20028;-47
2021/08/26 01:25:09;;;;;;;1090.68;971.15;;;;;;;16.68;81.98;93270.59;5052183;28;20414;-45
2021/08/26 01:27:45;;;;;;;1159.20;999.90;;;;;;;16.70;82.69;93273.50;5052271;28;20025;-45
2021/08/26 01:30:15;;;;;;;1147.25;999.90;;;;;;;16.58;81.86;93250.38;5051914;28;20037;-47
2021/08/26 01:32:42;;;;;;;1213.00;999.90;;;;;;;16.65;83.03;93264.13;5052049;28;20682;-45
2021/08/26 01:35:08;;;;;;;1113.40;998.88;;;;;;;16.71;82.24;93265.88;5022692;28;20029;-46
2021/08/26 01:37:36;;;;;;;1173.50;999.90;;;;;;;16.73;81.19;93263.97;5054158;28;20036;-45
2021/08/26 01:40:02;;;;;;;1125.75;999.25;;;;;;;16.79;82.44;93263.63;5071905;28;20040;-46
2021/08/26 01:42:28;;;;;;;1187.03;999.90;;;;;;;16.74;81.60;93253.56;5059650;28;20044;-46
2021/08/26 01:44:54;;;;;;;1337.47;999.90;;;;;;;16.65;80.64;93241.84;5051719;28;20045;-48
2021/08/26 01:47:21;;;;;;;1454.75;999.90;;;;;;;16.62;80.26;93250.66;5052040;28;20101;-46
2021/08/26 01:49:47;;;;;;;1260.68;999.90;;;;;;;16.76;81.84;93250.91;5052061;28;20032;-47
2021/08/26 01:52:17;;;;;;;1131.32;999.10;;;;;;;16.70;82.51;93236.56;5051677;28;20059;-47
2021/08/26 01:54:59;;;;;;;1127.70;997.88;;;;;;;16.83;81.70;93252.78;5051908;28;20112;-47
2021/08/26 01:57:26;;;;;;;1209.32;999.90;;;;;;;16.81;81.79;93245.00;5051689;28;20100;-45
2021/08/26 01:59:51;;;;;;;1249.32;999.90;;;;;;;16.86;81.39;93240.41;5056709;28;20024;-46
2021/08/26 02:02:17;;;;;;;1129.93;993.17;;;;;;;16.85;81.81;93247.34;5073100;28;20108;-45
2021/08/26 02:04:43;;;;;;;1134.07;998.42;;;;;;;16.68;81.76;93225.97;5085498;28;20025;-45
2021/08/26 02:07:08;;;;;;;1130.30;999.90;;;;;;;16.90;82.77;93246.25;5068672;28;20020;-46
2021/08/26 02:09:34;;;;;;;1079.88;966.70;;;;;;;16.90;82.06;93249.06;5070992;28;20469;-46
2021/08/26 02:12:00;;;;;;;1130.28;999.90;;;;;;;16.82;81.51;93246.47;5059041;28;20025;-46
2021/08/26 02:14:26;;;;;;;1188.70;999.90;;;;;;;16.86;81.53;93254.38;5054759;28;20060;-44
2021/08/26 02:16:51;;;;;;;1165.35;998.75;;;;;;;16.77;81.92;93249.56;5050688;28;20027;-44
2021/08/26 02:19:16;;;;;;;1125.25;999.90;;;;;;;16.77;82.77;93252.34;5057196;28;20032;-45
2021/08/26 02:21:42;;;;;;;1108.82;991.55;;;;;;;16.75;82.53;93257.78;5062999;28;20032;-44
2021/08/26 02:24:07;;;;;;;1128.35;999.90;;;;;;;16.72;82.83;93253.41;5069493;28;20414;-44
2021/08/26 02:26:33;;;;;;;1097.25;978.10;;;;;;;16.76;82.98;93246.06;5069878;28;20031;-45
2021/08/26 02:28:59;;;;;;;1269.50;999.90;;;;;;;16.79;83.32;93249.69;5070030;28;20024;-43
2021/08/26 02:31:26;;;;;;;1172.18;999.90;;;;;;;16.85;83.70;93256.41;5069942;28;20031;-45
2021/08/26 02:33:51;;;;;;;1099.05;988.08;;;;;;;16.90;83.07;93251.84;5070030;28;20027;-46
2021/08/26 02:36:17;;;;;;;1125.85;999.78;;;;;;;16.90;83.30;93251.84;5070199;28;20021;-44
2021/08/26 02:38:42;;;;;;;1092.22;979.90;;;;;;;16.94;82.94;93247.28;5070490;28;20063;-45
2021/08/26 02:41:07;;;;;;;1113.15;993.72;;;;;;;16.95;82.66;93245.22;5069328;28;20401;-44
2021/08/26 02:43:33;;;;;;;1151.38;999.90;;;;;;;16.95;82.87;93234.06;5049581;28;20403;-46
2021/08/26 02:45:58;;;;;;;1083.25;972.70;;;;;;;16.94;82.91;93240.97;5050492;28;20406;-45
2021/08/26 02:48:24;;;;;;;1105.78;986.25;;;;;;;16.85;83.27;93239.69;5050106;28;20414;-44
2021/08/26 02:50:49;;;;;;;1430.70;999.90;;;;;;;16.89;84.38;93248.31;5050355;28;20052;-46
2021/08/26 02:53:15;;;;;;;1190.20;996.50;;;;;;;17.00;84.22;93238.59;5050292;28;20032;-46
2021/08/26 02:55:40;;;;;;;1362.40;999.90;;;;;;;17.08;84.53;93245.44;5062868;28;20459;-45
2021/08/26 02:58:06;;;;;;;1220.00;994.25;;;;;;;17.04;84.22;93233.28;5070307;28;20526;-45
2021/08/26 03:00:31;;;;;;;1326.75;999.90;;;;;;;17.01;84.19;93235.19;5069862;28;20032;-46
2021/08/26 03:02:57;;;;;;;1113.95;971.75;;;;;;;17.02;83.76;93225.50;5070186;28;20024;-45
2021/08/26 03:05:22;;;;;;;1201.18;999.90;;;;;;;16.99;83.94;93218.34;5070128;28;20031;-47
2021/08/26 03:07:47;;;;;;;1318.97;999.90;;;;;;;16.98;84.65;93214.06;5069801;28;20024;-45
2021/08/26 03:10:13;;;;;;;1094.38;972.80;;;;;;;16.98;83.81;93232.88;5051830;28;20020;-45
2021/08/26 03:12:38;;;;;;;1216.88;998.55;;;;;;;16.99;83.75;93231.53;5069637;28;20024;-44
2021/08/26 03:15:04;;;;;;;1321.90;999.90;;;;;;;16.96;84.36;93232.72;5067554;28;20025;-45
2021/08/26 03:17:30;;;;;;;1281.15;996.80;;;;;;;16.94;84.23;93240.97;5049933;28;20541;-45
2021/08/26 03:19:55;;;;;;;1251.80;997.42;;;;;;;16.92;84.34;93238.78;5049526;28;20087;-45
2021/08/26 03:22:21;;;;;;;1281.53;999.53;;;;;;;16.90;84.98;93247.00;5049651;28;20078;-44
2021/08/26 03:24:46;;;;;;;1240.22;982.60;;;;;;;16.83;84.48;93231.19;5049891;28;20055;-44
2021/08/26 03:27:12;;;;;;;1376.45;999.90;;;;;;;16.84;85.05;93227.09;5049515;28;20025;-44
2021/08/26 03:29:37;;;;;;;1475.28;999.90;;;;;;;16.90;85.66;93241.44;5057087;28;20027;-44
2021/08/26 03:32:03;;;;;;;1492.68;999.90;;;;;;;16.96;85.86;93236.25;5089652;28;20477;-46
2021/08/26 03:34:28;;;;;;;1544.38;999.90;;;;;;;17.02;85.12;93236.66;5089696;28;20024;-46
2021/08/26 03:36:54;;;;;;;1577.85;999.90;;;;;;;17.07;85.21;93243.22;5089904;28;20028;-45
2021/08/26 03:39:19;;;;;;;1424.22;999.17;;;;;;;17.03;84.22;93254.13;5079884;28;20021;-46
2021/08/26 03:41:45;;;;;;;1072.93;950.28;;;;;;;16.98;83.50;93246.84;5063269;28;20021;-44
2021/08/26 03:44:10;;;;;;;1072.65;957.97;;;;;;;16.90;83.46;93241.44;5069718;28;20086;-46
2021/08/26 03:46:35;;;;;;;1064.32;955.08;;;;;;;16.79;83.65;93246.91;5067756;28;20063;-46
2021/08/26 03:49:01;;;;;;;1108.03;980.45;;;;;;;16.67;84.17;93241.25;5068063;28;20074;-45
2021/08/26 03:51:26;;;;;;;1142.88;983.55;;;;;;;16.71;84.76;93240.78;5067951;28;20166;-45
2021/08/26 03:53:52;;;;;;;1101.25;973.63;;;;;;;16.63;84.25;93236.13;5067773;28;20406;-45
2021/08/26 03:56:17;;;;;;;1187.68;975.95;;;;;;;16.46;84.72;93239.09;5053717;28;20482;-47
2021/08/26 03:58:42;;;;;;;1392.78;998.85;;;;;;;16.45;85.00;93246.00;5051764;28;20017;-48
2021/08/26 04:01:08;;;;;;;1420.65;999.90;;;;;;;16.31;85.38;93239.44;5053077;28;20025;-46
2021/08/26 04:03:34;;;;;;;1385.20;999.90;;;;;;;16.15;85.74;93237.59;5053107;28;20017;-47
2021/08/26 04:06:00;;;;;;;1459.63;999.90;;;;;;;16.16;86.04;93239.06;5053187;28;20079;-46
2021/08/26 04:08:26;;;;;;;1563.72;999.90;;;;;;;16.08;86.44;93230.88;5053061;28;20025;-49
2021/08/26 04:10:51;;;;;;;1688.82;999.90;;;;;;;16.09;86.95;93226.03;5053160;28;20063;-46
2021/08/26 04:13:17;;;;;;;1779.47;999.90;;;;;;;16.09;86.90;93220.47;5071459;28;20025;-45
2021/08/26 04:15:42;;;;;;;1769.00;999.90;;;;;;;16.14;86.89;93203.44;5073194;28;20028;-44
2021/08/26 04:18:08;;;;;;;1932.07;999.90;;;;;;;16.15;85.58;93216.06;5073261;28;20024;-46
2021/08/26 04:20:33;;;;;;;1818.30;999.90;;;;;;;16.05;86.13;93211.84;5072893;28;20035;-45
2021/08/26 04:22:59;;;;;;;1810.90;999.90;;;;;;;15.93;87.21;93223.59;5055054;28;20012;-43
2021/08/26 04:25:24;;;;;;;1710.43;999.90;;;;;;;15.71;88.32;93219.22;5072780;28;20035;-44
2021/08/26 04:27:50;;;;;;;1587.32;999.90;;;;;;;15.75;88.86;93230.63;5072950;28;20026;-45
2021/08/26 04:30:16;;;;;;;1580.80;999.90;;;;;;;15.77;88.66;93236.34;5072718;28;20028;-44
2021/08/26 04:32:41;;;;;;;1511.90;999.90;;;;;;;15.79;89.27;93242.06;5072845;28;20474;-44
2021/08/26 04:35:07;;;;;;;1450.78;999.90;;;;;;;15.74;89.48;93243.09;5072901;28;20028;-44
2021/08/26 04:37:32;;;;;;;1438.20;999.90;;;;;;;15.72;89.64;93240.16;5072815;28;20094;-43
2021/08/26 04:39:58;;;;;;;1324.32;999.90;;;;;;;15.75;89.63;93241.78;5072839;28;20032;-44
2021/08/26 04:42:23;;;;;;;1306.50;999.90;;;;;;;15.75;89.09;93241.78;5072102;28;20032;-46
2021/08/26 04:44:48;;;;;;;1415.50;999.90;;;;;;;15.71;88.73;93249.09;5072286;28;20105;-45
2021/08/26 04:47:14;;;;;;;1360.28;999.90;;;;;;;15.67;88.88;93243.25;5072386;28;20051;-46
2021/08/26 04:49:39;;;;;;;1411.68;999.90;;;;;;;15.75;89.15;93246.59;5072127;28;20031;-45
2021/08/26 04:52:05;;;;;;;1229.15;999.90;;;;;;;15.93;89.62;93253.47;5072321;28;20032;-46
2021/08/26 04:54:30;;;;;;;1469.18;999.90;;;;;;;15.99;87.59;93250.38;5069126;28;20025;-46
2021/08/26 04:56:56;;;;;;;1611.70;999.90;;;;;;;16.20;87.66;93250.50;5052190;28;20032;-46
2021/08/26 04:59:21;;;;;;;1893.85;999.90;;;;;;;16.33;85.18;93242.38;5052226;28;20025;-47
2021/08/26 05:01:47;;;;;;;1957.60;999.90;;;;;;;16.54;84.82;93242.50;5052400;28;20121;-46
2021/08/26 05:04:12;;;;;;;1721.53;999.90;;;;;;;16.60;83.52;93239.38;5052439;28;20017;-47
2021/08/26 05:06:38;;;;;;;1529.93;999.90;;;;;;;16.56;83.24;93230.75;5051648;28;20021;-45
2021/08/26 05:09:03;;;;;;;1466.25;999.90;;;;;;;16.63;83.40;93227.06;5066420;28;20028;-46
2021/08/26 05:11:29;;;;;;;1711.18;999.90;;;;;;;16.77;84.08;93216.84;5072274;28;20032;-46
2021/08/26 05:13:54;;;;;;;1792.78;999.90;;;;;;;16.94;83.95;93205.44;5071964;28;20029;-46
2021/08/26 05:16:20;;;;;;;1366.03;999.90;;;;;;;17.02;82.31;93191.31;5072175;28;20448;-45
2021/08/26 05:18:46;;;;;;;1176.70;999.90;;;;;;;17.25;81.89;93216.53;5072136;28;20028;-47
2021/08/26 05:21:11;;;;;;;880.03;812.50;;;;;;;17.34;79.86;93199.00;5071773;28;20414;-46
2021/08/26 05:23:37;;;;;;;924.47;849.85;;;;;;;17.48;80.67;93202.69;5072077;28;20020;-45
2021/08/26 05:26:03;;;;;;;933.45;853.10;;;;;;;17.59;79.30;93201.31;5071996;28;20532;-45
2021/08/26 05:28:28;;;;;;;1200.18;999.90;;;;;;;17.72;78.86;93215.47;5054211;28;20020;-44
2021/08/26 05:30:54;;;;;;;1165.80;999.88;;;;;;;17.70;79.24;93214.59;5071874;28;20583;-46
2021/08/26 05:33:19;;;;;;;1675.15;999.90;;;;;;;17.42;78.90;93222.59;5071789;28;20099;-45
2021/08/26 05:35:44;;;;;;;1607.85;999.90;;;;;;;17.24;79.57;93226.22;5071578;28;20097;-47
2021/08/26 05:38:10;;;;;;;1131.68;963.45;;;;;;;17.25;81.25;93213.75;5071470;28;20020;-46
2021/08/26 05:40:35;;;;;;;1006.53;904.22;;;;;;;17.30;81.29;93209.91;5071320;28;20024;-46
2021/08/26 05:43:01;;;;;;;1120.53;991.70;;;;;;;17.35;79.88;93217.94;5054405;28;20041;-44
2021/08/26 05:45:27;;;;;;;1325.10;999.90;;;;;;;17.32;79.80;93221.94;5051373;28;20028;-46
2021/08/26 05:47:56;;;;;;;1373.45;999.90;;;;;;;17.27;80.15;93233.41;5051514;28;20083;-47
2021/08/26 05:50:25;;;;;;;1281.95;998.50;;;;;;;17.39;80.66;93239.78;5051570;28;20028;-46
2021/08/26 05:52:51;;;;;;;;;;;;;;;17.50;80.82;93238.41;5079296;28;20055;-46
2021/08/26 05:55:18;;;;;;;1111.22;950.25;;;;;;;17.44;81.19;93205.22;5071244;28;20385;-45
2021/08/26 05:57:43;;;;;;;1031.53;931.83;;;;;;;17.61;81.70;93223.78;5085965;28;20052;-45
2021/08/26 06:00:09;;;;;;;1374.55;999.90;;;;;;;17.64;80.07;93214.94;5077409;28;20504;-46
2021/08/26 06:02:34;;;;;;;1707.72;999.90;;;;;;;17.74;79.34;93209.25;5070940;28;20024;-47
2021/08/26 06:05:00;;;;;;;1847.57;999.90;;;;;;;17.83;78.40;93209.19;5066766;28;20496;-48
2021/08/26 06:07:25;;;;;;;1947.47;999.90;;;;;;;17.95;77.79;93204.34;5060955;28;20471;-46
2021/08/26 06:09:51;;;;;;;1884.90;999.90;;;;;;;18.09;77.21;93202.44;5050989;28;20037;-46
2021/08/26 06:12:16;;;;;;;1999.90;999.90;;;;;;;18.26;77.09;93218.16;5051120;28;20029;-47
2021/08/26 06:14:42;;;;;;;1999.90;999.90;;;;;;;18.32;76.50;93206.63;5050975;28;20048;-46
2021/08/26 06:17:07;;;;;;;911.15;660.78;;;;;;;18.31;73.42;93208.69;5051988;28;20099;-45
2021/08/26 06:19:33;;;;;;;59.22;27.20;;;;;;;18.36;74.38;93204.81;5070906;28;20024;-45
2021/08/26 06:21:58;;;;;;;58.08;37.33;;;;;;;18.33;74.89;93186.44;5070871;28;20490;-46
2021/08/26 06:24:24;;;;;;;242.68;195.52;;;;;;;18.34;76.16;93192.78;5061298;28;20014;-45
2021/08/26 06:26:49;;;;;;;1097.30;543.08;;;;;;;18.22;77.34;93186.44;5048077;28;20029;-45
2021/08/26 06:29:15;;;;;;;125.10;106.53;;;;;;;18.34;75.46;93206.75;5048058;28;20136;-45
2021/08/26 06:31:41;;;;;;;224.25;171.23;;;;;;;18.32;76.87;93201.03;5048339;28;20024;-45
2021/08/26 06:34:06;;;;;;;164.40;141.07;;;;;;;18.55;76.44;93229.03;5048130;28;20025;-45
2021/08/26 06:36:31;;;;;;;53.75;29.80;;;;;;;18.62;75.25;93233.66;5057021;28;20021;-44
2021/08/26 06:38:58;;;;;;;96.97;64.90;;;;;;;18.69;76.33;93233.41;5051946;28;20048;-44
2021/08/26 06:41:25;;;;;;;55.80;25.42;;;;;;;18.73;75.58;93225.25;5062126;28;20098;-45
2021/08/26 06:43:50;;;;;;;60.38;22.60;;;;;;;18.48;74.83;93218.81;5056107;28;20059;-45
2021/08/26 06:46:16;;;;;;;51.45;20.25;;;;;;;18.62;75.66;93214.84;5056514;28;20237;-46
2021/08/26 06:48:41;;;;;;;47.13;19.55;;;;;;;18.80;74.33;93215.16;5056780;28;20020;-45
2021/08/26 06:51:07;;;;;;;44.88;21.23;;;;;;;18.98;73.63;93207.88;5058977;28;20341;-46
2021/08/26 06:53:32;;;;;;;50.60;27.25;;;;;;;19.12;74.57;93203.13;5064241;28;20517;-46
2021/08/26 06:55:58;;;;;;;47.97;21.10;;;;;;;19.23;74.23;93193.94;5063352;28;20027;-45
2021/08/26 06:58:23;;;;;;;49.25;22.02;;;;;;;19.35;73.74;93186.28;5059389;28;20020;-45
2021/08/26 07:00:49;;;;;;;47.20;22.58;;;;;;;19.67;72.69;93184.59;5056794;28;20024;-45
2021/08/26 07:03:14;;;;;;;47.05;20.92;;;;;;;20.08;70.89;93176.34;5056465;28;20012;-46
2021/08/26 07:05:40;;;;;;;58.55;23.10;;;;;;;20.29;68.91;93159.31;5065126;28;20028;-45
2021/08/26 07:08:05;;;;;;;371.80;328.65;;;;;;;20.16;67.21;93182.41;5055512;28;20445;-46
2021/08/26 07:10:31;;;;;;;59.50;35.45;;;;;;;20.11;70.07;93194.72;5056583;28;20025;-45
2021/08/26 07:12:56;;;;;;;1999.90;999.90;;;;;;;20.45;69.48;93199.41;5056670;28;20156;-47
2021/08/26 07:15:24;;;;;;;1438.68;999.90;;;;;;;20.38;66.11;93203.25;5052844;28;20028;-47
2021/08/26 07:17:50;;;;;;;940.00;864.77;;;;;;;19.88;67.43;93198.38;5047596;28;20028;-46
2021/08/26 07:20:16;;;;;;;1403.95;999.90;;;;;;;19.49;69.73;93195.47;5047180;28;20863;-46
2021/08/26 07:22:41;;;;;;;1817.32;999.90;;;;;;;19.43;70.87;93200.75;5029720;28;20040;-46
2021/08/26 07:25:07;;;;;;;1999.90;999.90;;;;;;;19.60;70.59;93203.13;5047449;28;20029;-48
2021/08/26 07:27:32;;;;;;;1344.13;999.90;;;;;;;19.82;69.24;93203.66;5047991;28;20029;-45
2021/08/26 07:29:58;;;;;;;1664.82;999.90;;;;;;;19.75;69.68;93220.75;5047381;28;20033;-45
2021/08/26 07:32:23;;;;;;;1728.10;999.90;;;;;;;19.76;69.19;93219.38;5047625;28;20032;-46
2021/08/26 07:34:49;;;;;;;1633.00;999.90;;;;;;;19.72;69.39;93214.28;5047407;28;20060;-46
2021/08/26 07:37:15;;;;;;;1690.28;999.90;;;;;;;19.91;70.52;93204.81;5047181;28;20029;-46
2021/08/26 07:39:40;;;;;;;1609.43;999.90;;;;;;;20.29;70.83;93202.06;5046224;28;20526;-47
2021/08/26 07:42:06;;;;;;;1298.32;999.90;;;;;;;20.63;68.57;93196.84;5047362;28;20528;-46
2021/08/26 07:44:31;;;;;;;1707.22;999.90;;;;;;;20.97;67.13;93205.00;5046997;28;20041;-46
2021/08/26 07:46:56;;;;;;;1313.18;999.90;;;;;;;20.69;66.25;93214.00;5047197;28;20433;-46
2021/08/26 07:49:22;;;;;;;1129.32;999.90;;;;;;;20.82;65.15;93208.41;5066505;28;20036;-47
2021/08/26 07:51:47;;;;;;;1173.00;999.90;;;;;;;20.82;65.68;93208.41;5066399;28;20032;-45
2021/08/26 07:54:13;;;;;;;388.45;361.52;;;;;;;20.77;64.50;93203.22;5067235;28;20509;-45
2021/08/26 07:56:38;;;;;;;652.00;599.25;;;;;;;20.44;65.48;93194.44;5062473;28;20442;-46
2021/08/26 07:59:04;;;;;;;1218.68;999.90;;;;;;;19.68;68.46;93195.16;5047090;28;20051;-47
2021/08/26 08:01:30;;;;;;;1657.45;999.90;;;;;;;19.34;70.27;93190.41;5047071;28;20058;-46
2021/08/26 08:03:55;;;;;;;943.38;845.03;;;;;;;19.47;71.74;93191.84;5046902;28;20898;-47
2021/08/26 08:06:21;;;;;;;1003.97;901.08;;;;;;;19.79;72.19;93181.75;5048537;28;20044;-47
2021/08/26 08:08:46;;;;;;;1896.63;999.90;;;;;;;20.12;70.09;93185.00;5067832;28;20035;-49
2021/08/26 08:11:12;;;;;;;1222.47;999.90;;;;;;;20.43;67.18;93176.88;5057904;28;20063;-46
2021/08/26 08:13:37;;;;;;;1409.10;999.90;;;;;;;20.94;69.62;93191.50;5061804;28;20032;-49
2021/08/26 08:16:04;;;;;;;350.45;326.35;;;;;;;20.90;67.04;93200.41;5063390;28;20086;-47
2021/08/26 08:18:29;;;;;;;21.25;19.17;;;;;;;21.51;65.38;93195.81;5067976;28;20035;-46
2021/08/26 08:20:55;;;;;;;8.00;6.53;;;;;;;21.94;63.89;93181.78;5049937;28;20033;-48
2021/08/26 08:23:20;;;;;;;7.22;6.53;;;;;;;22.36;61.69;93191.47;5061243;28;20066;-46
2021/08/26 08:25:46;;;;;;;8.48;6.97;;;;;;;22.87;60.15;93188.91;5066475;28;20044;-47
2021/08/26 08:28:16;;;;;;;7.07;6.38;;;;;;;22.63;58.50;93191.38;5056082;28;20020;-45
2021/08/26 08:30:43;;;;;;;10.85;9.85;;;;;;;22.77;60.95;93175.09;5058798;28;20036;-46
2021/08/26 08:33:09;;;;;;;14.07;12.80;;;;;;;23.41;57.45;93163.13;5055680;28;20037;-46
2021/08/26 08:35:34;;;;;;;22.13;20.52;;;;;;;25.64;53.43;93170.25;5057226;28;20501;-46
2021/08/26 08:38:00;;;;;;;31.10;29.30;;;;;;;27.56;46.52;93161.28;5058581;28;20020;-50
2021/08/26 08:40:26;;;;;;;6.68;6.03;;;;;;;28.84;41.45;93165.84;5057818;28;20083;-47
2021/08/26 08:42:52;;;;;;;6.00;5.40;;;;;;;29.66;39.81;93158.28;5060355;28;20492;-47
2021/08/26 08:45:18;;;;;;;7.13;5.63;;;;;;;30.57;39.23;93165.53;5042686;28;20028;-51
2021/08/26 08:47:47;;;;;;;5.95;5.35;;;;;;;31.77;37.39;93186.38;5062182;28;20029;-47
2021/08/26 09:02:41;;;;;;;7.05;6.20;;;;;;;26.07;49.21;93178.75;5126754;27;20634;-46
2021/08/26 09:05:07;;;;;;;8.77;6.93;;;;;;;25.75;50.51;93178.41;5127808;27;20598;-46
2021/08/26 09:07:38;;;;;;;8.32;7.50;;;;;;;25.39;51.38;93182.81;5094435;27;20039;-47
2021/08/26 09:10:05;;;;;;;7.65;6.82;;;;;;;24.97;52.81;93179.19;5104053;28;20390;-48
2021/08/26 09:12:39;;;;;;;10.18;6.85;;;;;;;24.58;53.43;93193.25;5107475;28;20032;-48
2021/08/26 09:15:09;;;;;;;12.32;11.23;;;;;;;24.35;54.54;93183.19;5107549;28;20022;-47
2021/08/26 09:17:34;;;;;;;216.65;206.57;;;;;;;23.72;57.46;93190.47;5107404;28;20419;-46
2021/08/26 09:20:05;;;;;;;410.88;388.90;;;;;;;22.27;60.59;93200.91;5107362;28;20094;-48
2021/08/26 09:22:31;;;;;;;864.03;806.97;;;;;;;21.27;64.18;93211.47;5106885;28;20241;-49
2021/08/26 09:24:57;;;;;;;891.60;834.00;;;;;;;20.65;66.49;93208.91;5101279;28;20016;-46
2021/08/26 09:27:35;;;;;;;996.20;921.75;;;;;;;20.33;67.72;93205.13;5085748;28;20397;-46
2021/08/26 09:30:05;;;;;;;1012.85;932.85;;;;;;;20.05;68.27;93205.63;5083616;28;20036;-45
2021/08/26 09:32:35;;;;;;;1052.05;968.33;;;;;;;19.66;70.25;93208.34;5083486;28;20062;-46
2021/08/26 09:35:22;;;;;;;1072.10;985.17;;;;;;;19.47;71.16;93203.78;5084477;28;20103;-46
2021/08/26 09:37:47;;;;;;;1100.80;999.80;;;;;;;19.41;72.32;93206.22;5083796;28;20047;-46
2021/08/26 09:40:15;;;;;;;1108.32;999.90;;;;;;;19.56;73.34;93202.91;5084074;28;20452;-48
2021/08/26 09:42:40;;;;;;;1049.85;965.55;;;;;;;19.69;71.58;93207.09;5087607;28;20020;-48
2021/08/26 09:45:20;;;;;;;1052.72;968.08;;;;;;;19.59;71.93;93212.88;5086149;28;20142;-47
2021/08/26 09:47:58;;;;;;;1068.28;981.53;;;;;;;19.70;73.15;93207.84;5089173;28;20038;-51
2021/08/26 09:50:38;;;;;;;1049.47;967.03;;;;;;;19.66;72.40;93208.34;5097026;28;20051;-47
2021/08/26 09:53:04;;;;;;;1102.07;999.90;;;;;;;20.08;74.65;93216.31;5097398;28;20028;-47
2021/08/26 09:56:05;;;;;;;1038.53;955.55;;;;;;;20.58;72.77;93226.78;5103856;28;20028;-46
2021/08/26 09:58:34;;;;;;;975.55;907.50;;;;;;;20.92;69.68;93220.16;5099051;28;20036;-48
2021/08/26 10:01:12;;;;;;;1027.22;947.92;;;;;;;21.13;70.93;93221.97;5085156;28;20055;-49
2021/08/26 10:03:38;;;;;;;976.65;907.08;;;;;;;20.99;69.78;93224.00;5088492;28;20024;-48
2021/08/26 10:06:04;;;;;;;952.13;886.60;;;;;;;20.70;68.85;93226.69;5090238;28;20028;-48
2021/08/26 10:08:31;;;;;;;971.70;903.58;;;;;;;20.20;70.25;93216.25;5090108;28;20040;-49
2021/08/26 10:11:01;;;;;;;1021.60;944.15;;;;;;;19.95;71.54;93221.84;5089875;28;20024;-48
2021/08/26 10:13:29;;;;;;;1004.78;928.90;;;;;;;19.61;71.42;93215.78;5080216;28;20509;-47
2021/08/26 10:15:54;;;;;;;1116.55;999.90;;;;;;;19.66;74.80;93227.97;5069721;28;20108;-48
2021/08/26 10:18:20;;;;;;;1101.93;999.03;;;;;;;19.59;73.01;93224.09;5069811;28;20545;-47
2021/08/26 10:20:46;;;;;;;1088.53;997.85;;;;;;;19.73;72.97;93220.63;5068695;28;20031;-47
2021/08/26 10:23:12;;;;;;;1141.03;999.90;;;;;;;19.85;73.80;93227.63;5069566;28;20580;-49
2021/08/26 10:25:39;;;;;;;1082.80;987.35;;;;;;;19.82;73.10;93223.25;5073292;28;20028;-47
2021/08/26 10:28:07;;;;;;;1121.40;999.90;;;;;;;20.06;73.90;93224.63;5088283;28;20038;-50
2021/08/26 10:30:35;;;;;;;1111.25;999.90;;;;;;;20.29;72.91;93226.59;5088289;28;20489;-49
2021/08/26 10:33:16;;;;;;;1092.97;996.40;;;;;;;20.46;72.35;93223.31;5090129;28;20032;-48
2021/08/26 10:35:51;;;;;;;1086.85;995.80;;;;;;;20.61;71.48;93219.19;5088216;28;20042;-48
2021/08/26 10:38:31;;;;;;;1008.75;933.10;;;;;;;20.72;70.50;93224.00;5089342;28;20042;-48
2021/08/26 10:40:59;;;;;;;1010.42;934.78;;;;;;;20.76;69.85;93208.09;5089156;28;20023;-49
2021/08/26 10:43:40;;;;;;;991.70;918.10;;;;;;;21.10;69.57;93218.34;5068984;28;20028;-48
2021/08/26 10:46:08;;;;;;;1004.55;931.80;;;;;;;21.27;68.56;93217.06;5069224;28;20032;-48
2021/08/26 10:48:34;;;;;;;977.33;910.10;;;;;;;21.30;68.19;93218.63;5069115;28;20496;-48
2021/08/26 10:51:04;;;;;;;951.78;885.78;;;;;;;21.30;67.05;93223.53;5089927;28;20040;-48
2021/08/26 10:53:32;;;;;;;979.42;910.83;;;;;;;21.31;68.27;93222.19;5088950;28;20024;-49
2021/08/26 10:56:16;;;;;;;989.40;921.03;;;;;;;21.34;67.46;93220.91;5089403;28;20064;-49
2021/08/26 10:58:43;;;;;;;948.60;886.10;;;;;;;21.32;67.36;93201.16;5089149;28;20119;-50
2021/08/26 11:01:11;;;;;;;920.22;858.78;;;;;;;21.48;67.14;93216.03;5088936;28;20409;-49
2021/08/26 11:03:45;;;;;;;929.72;867.25;;;;;;;21.51;66.79;93214.75;5086919;28;20683;-48
2021/08/26 11:06:14;;;;;;;919.38;859.10;;;;;;;21.55;66.17;93206.56;5088756;28;20051;-48
2021/08/26 11:08:41;;;;;;;896.33;836.50;;;;;;;21.75;65.54;93210.34;5087166;28;20072;-49
2021/08/26 11:11:40;;;;;;;877.50;821.78;;;;;;;22.21;64.13;93211.88;5088906;28;20485;-48
2021/08/26 11:14:06;;;;;;;903.92;844.33;;;;;;;21.98;64.37;93212.91;5075658;28;20067;-47